Jefferson Park, New York
Current Conditions -  °F | °C
As of 6:56 AM on Monday 24 Nov 2014 (Local Time) from KART Reporting Station
Overcast Overcast  
Wind Chill: 59°   Ceiling: 9500
Heat Index: 59°   Visibility: 10mi
Dew Point: 48°   Wind: 22mph
Humidity: 67%   Direction: 170°S
Pressure: 29.36"   Gusts: 43mph
Location:  43.8534°N, 76.251°W
Report Text: KART 241156Z AUTO 17019G37KT 10SM OVC095 15/09 A2936 RMK AO2 PK WND 16037/1154 SLP943 60021 70021 T01500089 10156 20117 56039
Loading
Personal Weather Stations






























Interactive Weather Map New forecast layout! Learn more

10-Day Weather Forecast

Advertisements
Track Severe Weather on mobile